createdAt,value
2019-03-29T00:01:51.396Z,9.74
2019-03-29T00:04:17.588Z,9.77
2019-03-29T00:06:43.686Z,9.66
2019-03-29T00:09:09.797Z,9.49
2019-03-29T00:11:36.029Z,9.44
2019-03-29T00:14:02.300Z,9.16
2019-03-29T00:16:28.399Z,9.18
2019-03-29T00:18:54.504Z,9.16
2019-03-29T00:21:20.721Z,9.27
2019-03-29T00:23:48.982Z,9.36
2019-03-29T00:26:15.215Z,9.42
2019-03-29T00:28:41.340Z,9.48
2019-03-29T00:31:07.535Z,9.37
2019-03-29T00:33:33.627Z,9.44
2019-03-29T00:35:59.947Z,9.44
2019-03-29T00:38:26.223Z,9.20
2019-03-29T00:40:52.597Z,9.10
2019-03-29T00:43:18.681Z,9.05
2019-03-29T00:45:45.178Z,9.04
2019-03-29T00:48:12.005Z,8.89
2019-03-29T00:50:38.209Z,8.91
2019-03-29T00:53:04.506Z,8.93
2019-03-29T00:55:30.586Z,8.91
2019-03-29T00:57:56.937Z,8.88
2019-03-29T01:00:24.511Z,8.82
2019-03-29T01:02:50.699Z,8.80
2019-03-29T01:05:17.000Z,8.76
2019-03-29T01:07:43.384Z,8.78
2019-03-29T01:10:09.895Z,8.71
2019-03-29T01:12:35.993Z,8.63
2019-03-29T01:15:05.196Z,8.24
2019-03-29T01:17:31.404Z,8.19
2019-03-29T01:19:57.474Z,8.28
2019-03-29T01:22:23.663Z,8.20
2019-03-29T01:24:49.845Z,8.11
2019-03-29T01:27:16.049Z,8.07
2019-03-29T01:29:42.275Z,8.01
2019-03-29T01:32:08.344Z,7.92
2019-03-29T01:34:34.554Z,7.88
2019-03-29T01:37:00.660Z,7.76
2019-03-29T01:39:26.863Z,7.72
2019-03-29T01:41:53.338Z,7.58
2019-03-29T01:44:19.563Z,7.25
2019-03-29T01:46:45.772Z,7.16
2019-03-29T01:49:11.961Z,7.20
2019-03-29T01:51:38.287Z,7.16
2019-03-29T01:54:04.542Z,7.20
2019-03-29T01:56:30.651Z,7.22
2019-03-29T01:58:56.742Z,7.25
2019-03-29T02:01:22.952Z,7.18
2019-03-29T02:03:49.184Z,7.19
2019-03-29T02:06:15.429Z,7.14
2019-03-29T02:08:41.546Z,7.04
2019-03-29T02:11:07.629Z,7.08
2019-03-29T02:13:33.745Z,7.04
2019-03-29T02:15:59.966Z,6.98
2019-03-29T02:18:26.263Z,6.89
2019-03-29T02:20:52.388Z,6.91
2019-03-29T02:23:18.499Z,6.94
2019-03-29T02:25:44.701Z,6.91
2019-03-29T02:28:11.020Z,6.95
2019-03-29T02:30:37.357Z,6.91
2019-03-29T02:33:03.665Z,6.89
2019-03-29T02:35:29.960Z,6.88
2019-03-29T02:37:56.566Z,6.76
2019-03-29T02:40:23.214Z,6.72
2019-03-29T02:42:49.463Z,6.78
2019-03-29T02:45:15.681Z,6.66
2019-03-29T02:47:42.955Z,6.63
2019-03-29T02:50:09.574Z,6.48
2019-03-29T02:52:35.819Z,6.39
2019-03-29T02:55:05.768Z,6.35
2019-03-29T02:57:31.962Z,6.27
2019-03-29T02:59:58.165Z,6.16
2019-03-29T03:02:26.559Z,6.07
2019-03-29T03:04:52.299Z,6.06
2019-03-29T03:07:18.454Z,5.95
2019-03-29T03:09:44.713Z,6.05
2019-03-29T03:12:10.819Z,6.03
2019-03-29T03:14:37.116Z,6.00
2019-03-29T03:17:03.415Z,5.97
2019-03-29T03:19:29.621Z,6.01
2019-03-29T03:21:55.744Z,5.98
2019-03-29T03:24:22.028Z,5.98
2019-03-29T03:26:48.238Z,5.86
2019-03-29T03:29:14.418Z,5.87
2019-03-29T03:31:40.627Z,5.65
2019-03-29T03:34:06.957Z,5.63
2019-03-29T03:36:33.244Z,5.61
2019-03-29T03:38:59.344Z,5.50
2019-03-29T03:41:25.651Z,5.53
2019-03-29T03:43:51.817Z,5.54
2019-03-29T03:46:18.043Z,5.51
2019-03-29T03:48:44.174Z,5.50
2019-03-29T03:51:10.458Z,5.55
2019-03-29T03:53:36.845Z,5.52
2019-03-29T03:56:03.466Z,5.52
2019-03-29T03:58:30.589Z,5.49
2019-03-29T04:00:57.216Z,5.28
2019-03-29T04:03:24.295Z,5.26
2019-03-29T04:05:50.689Z,5.28
2019-03-29T04:08:18.113Z,5.21
2019-03-29T04:10:44.371Z,5.24
2019-03-29T04:13:10.524Z,5.20
2019-03-29T04:15:36.750Z,5.15
2019-03-29T04:18:03.086Z,5.14
2019-03-29T04:20:29.621Z,5.15
2019-03-29T04:22:55.818Z,5.05
2019-03-29T04:25:22.009Z,5.04
2019-03-29T04:27:48.202Z,4.97
2019-03-29T04:30:14.495Z,5.02
2019-03-29T04:32:40.571Z,5.00
2019-03-29T04:35:07.056Z,4.97
2019-03-29T04:37:33.159Z,4.92
2019-03-29T04:40:07.561Z,4.95
2019-03-29T04:42:27.411Z,4.84
2019-03-29T04:44:53.487Z,4.81
2019-03-29T04:47:19.743Z,4.72
2019-03-29T04:49:45.861Z,4.58
2019-03-29T04:52:12.061Z,4.47
2019-03-29T04:54:38.157Z,4.43
2019-03-29T04:57:04.260Z,4.51
2019-03-29T04:59:30.360Z,4.51
2019-03-29T05:01:56.451Z,4.45
2019-03-29T05:04:22.552Z,4.45
2019-03-29T05:06:48.757Z,4.47
2019-03-29T05:09:14.867Z,4.38
2019-03-29T05:11:41.083Z,4.47
2019-03-29T05:14:07.194Z,4.37
2019-03-29T05:16:33.316Z,4.33
2019-03-29T05:18:59.531Z,4.15
2019-03-29T05:21:25.616Z,4.16
2019-03-29T05:23:51.721Z,4.23
2019-03-29T05:26:17.933Z,4.30
2019-03-29T05:28:44.126Z,4.31
2019-03-29T05:31:10.339Z,4.26
2019-03-29T05:33:36.581Z,4.31
2019-03-29T05:36:02.864Z,4.26
2019-03-29T05:38:28.950Z,4.39
2019-03-29T05:40:55.278Z,4.39
2019-03-29T05:43:21.500Z,4.50
2019-03-29T05:45:47.817Z,4.52
2019-03-29T05:48:13.922Z,4.58
2019-03-29T05:50:40.211Z,4.62
2019-03-29T05:53:06.432Z,4.68
2019-03-29T05:55:33.133Z,4.77
2019-03-29T05:57:59.262Z,4.69
2019-03-29T06:00:25.524Z,4.73
2019-03-29T06:02:51.552Z,4.80
2019-03-29T06:05:18.860Z,5.11
2019-03-29T06:07:44.960Z,5.23
2019-03-29T06:10:11.250Z,5.24
2019-03-29T06:12:37.480Z,5.32
2019-03-29T06:15:04.453Z,5.54
2019-03-29T06:17:30.771Z,5.79
2019-03-29T06:19:56.989Z,5.86
2019-03-29T06:22:23.300Z,6.07
2019-03-29T06:24:49.483Z,6.42
2019-03-29T06:27:16.704Z,6.54
2019-03-29T06:29:42.778Z,6.53
2019-03-29T06:32:08.983Z,6.64
2019-03-29T06:34:35.292Z,6.83
2019-03-29T06:37:01.874Z,6.90
2019-03-29T06:39:28.201Z,6.80
2019-03-29T06:41:54.505Z,6.96
2019-03-29T06:44:20.730Z,7.08
2019-03-29T06:46:46.927Z,7.32
2019-03-29T06:49:13.038Z,7.45
2019-03-29T06:51:39.167Z,7.48
2019-03-29T06:54:05.498Z,7.64
2019-03-29T06:56:31.617Z,7.71
2019-03-29T06:58:57.745Z,8.17
2019-03-29T07:01:23.928Z,8.32
2019-03-29T07:03:51.107Z,8.41
2019-03-29T07:06:18.325Z,9.01
2019-03-29T07:08:44.445Z,8.34
2019-03-29T07:11:17.158Z,8.67
2019-03-29T07:13:38.865Z,8.91
2019-03-29T07:16:05.003Z,9.41
2019-03-29T07:18:31.126Z,9.75
2019-03-29T07:20:57.403Z,9.65
2019-03-29T07:23:23.644Z,9.06
2019-03-29T07:25:49.880Z,9.89
2019-03-29T07:28:16.495Z,9.78
2019-03-29T07:30:42.699Z,10.47
2019-03-29T07:33:09.018Z,10.74
2019-03-29T07:35:35.151Z,9.93
2019-03-29T07:38:01.207Z,9.71
2019-03-29T07:40:27.333Z,10.35
2019-03-29T07:42:53.422Z,9.93
2019-03-29T07:45:19.721Z,10.18
2019-03-29T07:47:45.988Z,10.35
2019-03-29T07:50:12.290Z,10.35
2019-03-29T07:52:38.721Z,10.05
2019-03-29T07:55:06.167Z,10.57
2019-03-29T07:57:32.466Z,10.97
2019-03-29T07:59:58.591Z,11.53
2019-03-29T08:02:24.930Z,11.72
2019-03-29T08:04:51.283Z,10.83
2019-03-29T08:07:27.319Z,10.83
2019-03-29T08:09:45.754Z,10.63
2019-03-29T08:12:12.180Z,12.05
2019-03-29T08:14:38.419Z,12.11
2019-03-29T08:17:04.647Z,12.11
2019-03-29T08:19:30.966Z,11.93
2019-03-29T08:21:57.917Z,11.19
2019-03-29T08:24:24.461Z,11.40
2019-03-29T08:26:50.920Z,11.74
2019-03-29T08:29:17.051Z,12.18
2019-03-29T08:31:43.336Z,12.89
2019-03-29T08:34:09.648Z,12.77
2019-03-29T08:36:35.948Z,12.54
2019-03-29T08:39:04.584Z,12.64
2019-03-29T08:41:30.989Z,12.76
2019-03-29T08:43:57.212Z,13.04
2019-03-29T08:46:23.459Z,12.46
2019-03-29T08:48:49.651Z,12.38
2019-03-29T08:51:15.785Z,12.39
2019-03-29T08:53:42.024Z,12.25
2019-03-29T08:56:08.326Z,12.45
2019-03-29T08:58:34.666Z,12.30
2019-03-29T09:01:01.003Z,13.19
2019-03-29T09:03:27.519Z,14.34
2019-03-29T09:05:53.841Z,13.28
2019-03-29T09:08:20.191Z,13.58
2019-03-29T09:10:46.406Z,14.05
2019-03-29T09:13:12.617Z,13.94
2019-03-29T09:15:38.741Z,14.19
2019-03-29T09:18:04.876Z,14.40
2019-03-29T09:20:34.255Z,14.79
2019-03-29T09:22:59.409Z,15.00
2019-03-29T09:25:25.618Z,15.16
2019-03-29T09:27:51.727Z,15.97
2019-03-29T09:30:18.575Z,16.49
2019-03-29T09:32:44.891Z,16.01
2019-03-29T09:35:11.376Z,14.93
2019-03-29T09:37:37.597Z,15.80
2019-03-29T09:40:05.101Z,16.35
2019-03-29T09:42:31.298Z,16.40
2019-03-29T09:44:57.653Z,16.35
2019-03-29T09:47:23.708Z,16.21
2019-03-29T09:49:49.811Z,16.00
2019-03-29T09:52:15.907Z,14.98
2019-03-29T09:54:42.088Z,15.42
2019-03-29T09:57:09.913Z,15.65
2019-03-29T09:59:36.419Z,15.81
2019-03-29T10:02:02.734Z,16.50
2019-03-29T10:04:28.947Z,15.56
2019-03-29T10:06:55.280Z,15.78
2019-03-29T10:09:21.393Z,16.28
2019-03-29T10:11:47.525Z,16.29
2019-03-29T10:14:13.767Z,16.21
2019-03-29T10:16:39.864Z,15.54
2019-03-29T10:19:05.969Z,15.65
2019-03-29T10:21:34.118Z,15.74
2019-03-29T10:24:00.315Z,15.71
2019-03-29T10:26:26.534Z,15.81
2019-03-29T10:28:52.673Z,15.58
2019-03-29T10:31:31.504Z,14.99
2019-03-29T10:33:49.029Z,15.25
2019-03-29T10:36:15.215Z,15.65
2019-03-29T10:38:41.534Z,16.25
2019-03-29T10:41:07.804Z,16.54
2019-03-29T10:43:33.902Z,17.06
2019-03-29T10:46:00.133Z,17.29
2019-03-29T10:48:26.531Z,17.46
2019-03-29T10:50:52.737Z,17.02
2019-03-29T10:53:18.986Z,17.34
2019-03-29T10:55:45.179Z,17.18
2019-03-29T10:58:11.518Z,17.33
2019-03-29T11:00:38.925Z,17.05
2019-03-29T11:03:05.417Z,17.06
2019-03-29T11:05:31.710Z,17.23
2019-03-29T11:07:58.022Z,16.93
2019-03-29T11:10:33.986Z,17.22
2019-03-29T11:13:11.869Z,16.79
2019-03-29T11:15:29.982Z,16.80
2019-03-29T11:17:56.390Z,16.76
2019-03-29T11:20:22.634Z,16.27
2019-03-29T11:22:48.735Z,17.01
2019-03-29T11:25:15.060Z,16.92
2019-03-29T11:27:41.276Z,16.88
2019-03-29T11:30:07.640Z,17.46
2019-03-29T11:32:33.877Z,17.45
2019-03-29T11:35:00.395Z,17.27
2019-03-29T11:37:26.639Z,17.96
2019-03-29T11:39:52.836Z,17.61
2019-03-29T11:42:18.919Z,17.62
2019-03-29T11:44:45.001Z,17.62
2019-03-29T11:47:11.232Z,16.89
2019-03-29T11:49:37.623Z,16.78
2019-03-29T11:52:04.041Z,16.89
2019-03-29T11:54:30.200Z,16.47
2019-03-29T11:56:56.452Z,16.03
2019-03-29T11:59:22.658Z,16.06
2019-03-29T12:01:48.843Z,16.36
2019-03-29T12:04:15.085Z,17.35
2019-03-29T12:06:41.242Z,17.63
2019-03-29T12:09:08.648Z,17.22
2019-03-29T12:11:34.985Z,17.89
2019-03-29T12:14:04.837Z,19.27
2019-03-29T12:16:30.052Z,18.99
2019-03-29T12:18:56.261Z,18.67
2019-03-29T12:21:22.545Z,18.84
2019-03-29T12:23:48.759Z,19.54
2019-03-29T12:26:14.888Z,19.71
2019-03-29T12:28:41.017Z,19.71
2019-03-29T12:31:07.443Z,19.36
2019-03-29T12:33:33.667Z,19.31
2019-03-29T12:35:59.762Z,20.03
2019-03-29T12:38:25.884Z,20.07
2019-03-29T12:40:52.262Z,20.26
2019-03-29T12:43:18.480Z,20.94
2019-03-29T12:45:44.589Z,20.99
2019-03-29T12:48:10.683Z,20.51
2019-03-29T12:50:36.910Z,19.54
2019-03-29T12:53:03.207Z,20.18
2019-03-29T12:55:29.424Z,19.47
2019-03-29T12:57:55.848Z,19.25
2019-03-29T13:00:22.295Z,18.97
2019-03-29T13:02:48.568Z,19.75
2019-03-29T13:05:14.884Z,18.41
2019-03-29T13:07:41.084Z,19.64
2019-03-29T13:10:07.994Z,19.54
2019-03-29T13:12:34.243Z,19.46
2019-03-29T13:15:00.466Z,19.62
2019-03-29T13:17:28.592Z,18.55
2019-03-29T13:19:54.674Z,19.81
2019-03-29T13:22:21.311Z,20.39
2019-03-29T13:24:49.587Z,20.76
2019-03-29T13:27:16.110Z,19.91
2019-03-29T13:29:42.352Z,21.06
2019-03-29T13:32:08.598Z,19.70
2019-03-29T13:34:34.826Z,18.93
2019-03-29T13:37:01.112Z,19.57
2019-03-29T13:39:27.210Z,20.38
2019-03-29T13:41:53.329Z,20.26
2019-03-29T13:44:24.042Z,20.17
2019-03-29T13:46:47.813Z,20.33
2019-03-29T13:49:14.006Z,19.23
2019-03-29T13:51:40.210Z,18.74
2019-03-29T13:54:06.545Z,17.55
2019-03-29T13:56:32.879Z,18.18
2019-03-29T13:58:59.018Z,18.63
2019-03-29T14:01:25.118Z,19.69
2019-03-29T14:03:51.208Z,20.58
2019-03-29T14:06:17.410Z,20.50
2019-03-29T14:08:43.581Z,19.39
2019-03-29T14:11:09.808Z,18.68
2019-03-29T14:13:35.911Z,18.60
2019-03-29T14:16:02.095Z,18.64
2019-03-29T14:18:28.418Z,18.14
2019-03-29T14:20:54.652Z,18.21
2019-03-29T14:23:20.875Z,17.96
2019-03-29T14:25:46.953Z,18.01
2019-03-29T14:28:13.257Z,17.94
2019-03-29T14:30:39.480Z,18.23
2019-03-29T14:33:05.611Z,17.86
2019-03-29T14:35:31.888Z,18.36
2019-03-29T14:37:58.125Z,18.53
2019-03-29T14:40:24.429Z,17.66
2019-03-29T14:42:50.635Z,18.09
2019-03-29T14:45:16.885Z,18.10
2019-03-29T14:47:43.961Z,17.78
2019-03-29T14:50:10.679Z,17.39
2019-03-29T14:52:37.589Z,17.24
2019-03-29T14:55:04.915Z,17.45
2019-03-29T14:57:31.162Z,17.77
2019-03-29T14:59:57.483Z,17.75
2019-03-29T15:02:23.632Z,17.66
2019-03-29T15:04:49.807Z,17.48
2019-03-29T15:07:16.027Z,17.54
2019-03-29T15:09:42.298Z,18.09
2019-03-29T15:12:08.539Z,18.45
2019-03-29T15:14:34.730Z,19.09
2019-03-29T15:17:01.040Z,18.82
2019-03-29T15:19:27.266Z,18.70
2019-03-29T15:21:53.485Z,19.11
2019-03-29T15:24:19.662Z,18.54
2019-03-29T15:26:45.893Z,19.26
2019-03-29T15:29:12.037Z,20.07
2019-03-29T15:31:38.243Z,20.04
2019-03-29T15:34:05.460Z,19.74
2019-03-29T15:36:31.655Z,18.43
2019-03-29T15:38:57.878Z,19.36
2019-03-29T15:41:24.181Z,18.39
2019-03-29T15:43:50.424Z,17.92
2019-03-29T15:46:16.524Z,18.33
2019-03-29T15:48:42.843Z,18.38
2019-03-29T15:51:10.279Z,18.19
2019-03-29T15:53:36.524Z,18.26
2019-03-29T15:56:02.875Z,18.40
2019-03-29T15:58:29.120Z,18.47
2019-03-29T16:00:55.309Z,18.56
2019-03-29T16:03:21.491Z,18.32
2019-03-29T16:05:48.553Z,18.10
2019-03-29T16:08:15.042Z,18.36
2019-03-29T16:10:41.625Z,18.62
2019-03-29T16:13:07.999Z,18.92
2019-03-29T16:15:38.234Z,18.75
2019-03-29T16:18:02.446Z,18.65
2019-03-29T16:20:28.705Z,18.93
2019-03-29T16:22:54.932Z,18.86
2019-03-29T16:25:21.067Z,19.30
2019-03-29T16:27:47.390Z,18.61
2019-03-29T16:30:13.930Z,18.76
2019-03-29T16:32:40.108Z,18.74
2019-03-29T16:35:06.715Z,18.70
2019-03-29T16:37:32.938Z,18.37
2019-03-29T16:39:59.033Z,18.49
2019-03-29T16:42:25.143Z,18.28
2019-03-29T16:44:51.504Z,18.65
2019-03-29T16:47:17.595Z,18.97
2019-03-29T16:49:44.875Z,18.93
2019-03-29T16:52:10.985Z,18.33
2019-03-29T16:54:37.191Z,18.23
2019-03-29T16:57:03.530Z,17.93
2019-03-29T16:59:29.758Z,18.04
2019-03-29T17:01:56.114Z,17.76
2019-03-29T17:04:22.319Z,17.51
2019-03-29T17:06:48.416Z,17.40
2019-03-29T17:09:14.648Z,17.59
2019-03-29T17:11:40.897Z,17.90
2019-03-29T17:14:07.261Z,17.63
2019-03-29T17:16:33.561Z,17.83
2019-03-29T17:18:59.781Z,17.88
2019-03-29T17:21:26.975Z,17.79
2019-03-29T17:23:53.176Z,17.92
2019-03-29T17:26:19.385Z,17.35
2019-03-29T17:28:45.681Z,17.26
2019-03-29T17:31:13.982Z,17.18
2019-03-29T17:33:40.196Z,17.17
2019-03-29T17:36:06.390Z,17.16
2019-03-29T17:38:32.645Z,17.07
2019-03-29T17:40:58.874Z,17.00
2019-03-29T17:43:25.006Z,16.98
2019-03-29T17:45:51.363Z,16.87
2019-03-29T17:48:17.497Z,16.81
2019-03-29T17:50:43.812Z,16.66
2019-03-29T17:53:12.071Z,16.58
2019-03-29T17:55:38.382Z,16.51
2019-03-29T17:58:04.613Z,16.15
2019-03-29T18:00:31.039Z,16.06
2019-03-29T18:02:57.130Z,15.87
2019-03-29T18:05:23.335Z,15.65
2019-03-29T18:07:49.557Z,15.44
2019-03-29T18:10:15.997Z,14.96
2019-03-29T18:12:42.345Z,14.52
2019-03-29T18:15:09.048Z,13.98
2019-03-29T18:17:35.753Z,13.86
2019-03-29T18:20:06.963Z,13.88
2019-03-29T18:22:33.273Z,13.83
2019-03-29T18:24:59.599Z,13.70
2019-03-29T18:27:26.086Z,13.60
2019-03-29T18:29:52.484Z,13.53
2019-03-29T18:32:18.734Z,13.32
2019-03-29T18:34:45.003Z,13.46
2019-03-29T18:37:12.034Z,13.52
2019-03-29T18:39:38.440Z,13.60
2019-03-29T18:42:04.602Z,13.69
2019-03-29T18:44:30.740Z,13.99
2019-03-29T18:46:56.960Z,13.73
2019-03-29T18:49:23.119Z,13.66
2019-03-29T18:51:49.468Z,13.77
2019-03-29T18:54:15.623Z,13.77
2019-03-29T18:56:42.947Z,13.82
2019-03-29T18:59:09.068Z,13.84
2019-03-29T19:01:35.356Z,13.66
2019-03-29T19:04:01.484Z,13.56
2019-03-29T19:06:27.828Z,13.65
2019-03-29T19:08:54.063Z,13.55
2019-03-29T19:11:20.285Z,13.49
2019-03-29T19:13:46.522Z,13.63
2019-03-29T19:16:12.854Z,13.51
2019-03-29T19:18:39.088Z,13.16
2019-03-29T19:21:05.591Z,12.58
2019-03-29T19:23:31.814Z,12.63
2019-03-29T19:25:58.142Z,12.13
2019-03-29T19:28:24.481Z,11.76
2019-03-29T19:30:50.928Z,11.91
2019-03-29T19:33:17.188Z,11.71
2019-03-29T19:35:43.320Z,11.11
2019-03-29T19:38:09.535Z,11.11
2019-03-29T19:40:35.740Z,11.25
2019-03-29T19:43:02.183Z,11.36
2019-03-29T19:45:29.592Z,11.52
2019-03-29T19:47:55.809Z,11.51
2019-03-29T19:50:22.178Z,11.66
2019-03-29T19:52:48.428Z,11.69
2019-03-29T19:55:14.607Z,11.67
2019-03-29T19:57:40.940Z,11.76
2019-03-29T20:00:12.364Z,11.66
2019-03-29T20:02:38.726Z,11.49
2019-03-29T20:05:06.976Z,11.49
2019-03-29T20:07:33.300Z,11.37
2019-03-29T20:09:59.636Z,11.37
2019-03-29T20:12:26.981Z,11.35
2019-03-29T20:14:53.435Z,11.58
2019-03-29T20:17:27.359Z,11.58
2019-03-29T20:19:47.757Z,11.65
2019-03-29T20:22:16.218Z,11.75
2019-03-29T20:24:42.205Z,11.75
2019-03-29T20:27:08.480Z,11.60
2019-03-29T20:29:34.744Z,11.60
2019-03-29T20:32:01.085Z,11.55
2019-03-29T20:34:27.237Z,11.64
2019-03-29T20:36:53.469Z,11.54
2019-03-29T20:39:19.787Z,11.50
2019-03-29T20:41:46.132Z,10.77
2019-03-29T20:44:12.692Z,10.77
2019-03-29T20:46:38.928Z,10.79
2019-03-29T20:49:05.074Z,10.85
2019-03-29T20:51:31.278Z,10.86
2019-03-29T20:53:57.492Z,10.72
2019-03-29T20:56:23.731Z,10.58
2019-03-29T20:58:49.930Z,10.51
2019-03-29T21:01:16.183Z,10.49
2019-03-29T21:03:42.484Z,10.58
2019-03-29T21:06:08.890Z,10.65
2019-03-29T21:08:36.020Z,10.60
2019-03-29T21:11:02.470Z,10.76
2019-03-29T21:13:28.765Z,10.71
2019-03-29T21:15:55.089Z,10.61
2019-03-29T21:18:21.405Z,10.71
2019-03-29T21:20:47.610Z,10.68
2019-03-29T21:23:13.739Z,10.74
2019-03-29T21:25:39.818Z,10.72
2019-03-29T21:28:06.030Z,10.62
2019-03-29T21:30:32.470Z,10.70
2019-03-29T21:32:58.794Z,10.77
2019-03-29T21:35:25.018Z,10.77
2019-03-29T21:37:51.306Z,10.62
2019-03-29T21:40:17.595Z,10.62
2019-03-29T21:42:43.739Z,10.59
2019-03-29T21:45:10.357Z,10.43
2019-03-29T21:47:36.718Z,10.43
2019-03-29T21:50:05.960Z,10.46
2019-03-29T21:52:32.158Z,10.32
2019-03-29T21:54:58.365Z,10.28
2019-03-29T21:57:24.617Z,10.05
2019-03-29T21:59:51.027Z,10.00
2019-03-29T22:02:17.259Z,9.91
2019-03-29T22:04:43.561Z,9.90
2019-03-29T22:07:09.646Z,9.89
2019-03-29T22:09:37.173Z,9.99
2019-03-29T22:12:03.775Z,10.02
2019-03-29T22:14:29.881Z,10.11
2019-03-29T22:16:56.007Z,10.16
2019-03-29T22:19:22.326Z,10.16
2019-03-29T22:21:48.663Z,10.15
2019-03-29T22:24:14.871Z,10.13
2019-03-29T22:26:41.054Z,10.14
2019-03-29T22:29:07.496Z,10.11
2019-03-29T22:31:33.699Z,10.08
2019-03-29T22:34:00.027Z,9.94
2019-03-29T22:36:26.118Z,10.01
2019-03-29T22:38:52.246Z,9.76
2019-03-29T22:41:18.452Z,9.83
2019-03-29T22:43:44.575Z,9.81
2019-03-29T22:46:10.777Z,9.76
2019-03-29T22:48:51.243Z,9.78
2019-03-29T22:51:05.194Z,9.78
2019-03-29T22:53:31.318Z,9.79
2019-03-29T22:55:57.448Z,9.68
2019-03-29T22:58:23.576Z,9.61
2019-03-29T23:00:53.625Z,9.53
2019-03-29T23:03:20.175Z,9.20
2019-03-29T23:05:46.309Z,9.24
2019-03-29T23:08:12.739Z,9.10
2019-03-29T23:10:38.954Z,9.20
2019-03-29T23:13:05.254Z,8.73
2019-03-29T23:15:31.555Z,8.74
2019-03-29T23:17:57.865Z,8.61
2019-03-29T23:20:24.274Z,8.57
2019-03-29T23:22:50.388Z,8.42
2019-03-29T23:25:16.589Z,8.31
2019-03-29T23:27:42.911Z,8.34
2019-03-29T23:30:09.633Z,8.22
2019-03-29T23:32:35.951Z,8.17
2019-03-29T23:35:06.619Z,8.24
2019-03-29T23:37:32.815Z,8.19
2019-03-29T23:39:59.144Z,8.29
2019-03-29T23:42:25.375Z,8.24
2019-03-29T23:44:51.563Z,7.97
2019-03-29T23:47:17.763Z,7.92
2019-03-29T23:49:44.172Z,7.88
2019-03-29T23:52:10.276Z,7.85
2019-03-29T23:54:36.494Z,7.75
2019-03-29T23:57:02.911Z,7.86
2019-03-29T23:59:28.998Z,7.85
